sensor_id;sensor_type;location;lat;lon;timestamp;P1;durP1;ratioP1;P2;durP2;ratioP2
37791;SDS011;29527;55.766;37.570;2022-10-31T00:01:56;0.75;;;0.30;;
37791;SDS011;29527;55.766;37.570;2022-10-31T00:04:21;0.70;;;0.30;;
37791;SDS011;29527;55.766;37.570;2022-10-31T00:06:46;1.33;;;0.50;;
37791;SDS011;29527;55.766;37.570;2022-10-31T00:09:12;2.30;;;0.52;;
37791;SDS011;29527;55.766;37.570;2022-10-31T00:11:37;3.40;;;0.40;;
37791;SDS011;29527;55.766;37.570;2022-10-31T00:14:03;1.60;;;0.40;;
37791;SDS011;29527;55.766;37.570;2022-10-31T00:16:29;1.60;;;0.45;;
37791;SDS011;29527;55.766;37.570;2022-10-31T00:18:56;2.95;;;0.35;;
37791;SDS011;29527;55.766;37.570;2022-10-31T00:21:27;2.40;;;0.43;;
37791;SDS011;29527;55.766;37.570;2022-10-31T00:23:54;2.10;;;0.40;;
37791;SDS011;29527;55.766;37.570;2022-10-31T00:26:20;1.83;;;0.45;;
37791;SDS011;29527;55.766;37.570;2022-10-31T00:28:45;3.33;;;0.40;;
37791;SDS011;29527;55.766;37.570;2022-10-31T00:31:11;0.40;;;0.20;;
37791;SDS011;29527;55.766;37.570;2022-10-31T00:33:38;1.63;;;0.20;;
37791;SDS011;29527;55.766;37.570;2022-10-31T00:36:05;1.67;;;0.20;;
37791;SDS011;29527;55.766;37.570;2022-10-31T00:38:32;2.28;;;0.50;;
37791;SDS011;29527;55.766;37.570;2022-10-31T00:40:57;1.42;;;0.40;;
37791;SDS011;29527;55.766;37.570;2022-10-31T00:43:23;1.15;;;0.32;;
37791;SDS011;29527;55.766;37.570;2022-10-31T00:45:49;1.02;;;0.55;;
37791;SDS011;29527;55.766;37.570;2022-10-31T00:48:14;2.08;;;0.38;;
37791;SDS011;29527;55.766;37.570;2022-10-31T00:50:40;0.40;;;0.22;;
37791;SDS011;29527;55.766;37.570;2022-10-31T00:53:06;1.48;;;0.20;;
37791;SDS011;29527;55.766;37.570;2022-10-31T00:55:33;1.60;;;0.40;;
37791;SDS011;29527;55.766;37.570;2022-10-31T00:57:59;1.08;;;0.30;;
37791;SDS011;29527;55.766;37.570;2022-10-31T01:00:25;2.78;;;0.32;;
37791;SDS011;29527;55.766;37.570;2022-10-31T01:02:50;1.65;;;0.30;;
37791;SDS011;29527;55.766;37.570;2022-10-31T01:05:16;1.38;;;0.30;;
37791;SDS011;29527;55.766;37.570;2022-10-31T01:07:41;1.27;;;0.30;;
37791;SDS011;29527;55.766;37.570;2022-10-31T01:10:07;1.73;;;0.30;;
37791;SDS011;29527;55.766;37.570;2022-10-31T01:12:38;2.10;;;0.30;;
37791;SDS011;29527;55.766;37.570;2022-10-31T01:15:05;0.73;;;0.40;;
37791;SDS011;29527;55.766;37.570;2022-10-31T01:17:31;1.30;;;0.30;;
37791;SDS011;29527;55.766;37.570;2022-10-31T01:19:57;1.63;;;0.30;;
37791;SDS011;29527;55.766;37.570;2022-10-31T01:22:22;0.63;;;0.43;;
37791;SDS011;29527;55.766;37.570;2022-10-31T01:24:48;3.75;;;0.60;;
37791;SDS011;29527;55.766;37.570;2022-10-31T01:27:13;2.05;;;0.40;;
37791;SDS011;29527;55.766;37.570;2022-10-31T01:29:39;0.70;;;0.30;;
37791;SDS011;29527;55.766;37.570;2022-10-31T01:32:04;0.57;;;0.30;;
37791;SDS011;29527;55.766;37.570;2022-10-31T01:34:30;1.98;;;0.50;;
37791;SDS011;29527;55.766;37.570;2022-10-31T01:36:55;0.47;;;0.30;;
37791;SDS011;29527;55.766;37.570;2022-10-31T01:39:20;1.25;;;0.45;;
37791;SDS011;29527;55.766;37.570;2022-10-31T01:41:47;1.83;;;0.30;;
37791;SDS011;29527;55.766;37.570;2022-10-31T01:49:53;0.93;;;0.30;;
37791;SDS011;29527;55.766;37.570;2022-10-31T01:55:04;1.63;;;0.40;;
37791;SDS011;29527;55.766;37.570;2022-10-31T01:57:59;0.80;;;0.30;;
37791;SDS011;29527;55.766;37.570;2022-10-31T02:00:29;1.05;;;0.28;;
37791;SDS011;29527;55.766;37.570;2022-10-31T02:02:55;1.25;;;0.40;;
37791;SDS011;29527;55.766;37.570;2022-10-31T02:05:24;0.85;;;0.20;;
37791;SDS011;29527;55.766;37.570;2022-10-31T02:10:38;0.73;;;0.40;;
37791;SDS011;29527;55.766;37.570;2022-10-31T02:13:06;1.17;;;0.30;;
37791;SDS011;29527;55.766;37.570;2022-10-31T02:15:33;3.13;;;0.38;;
37791;SDS011;29527;55.766;37.570;2022-10-31T02:18:00;0.60;;;0.35;;
37791;SDS011;29527;55.766;37.570;2022-10-31T02:20:28;4.40;;;0.45;;
37791;SDS011;29527;55.766;37.570;2022-10-31T02:34:20;3.63;;;0.60;;
37791;SDS011;29527;55.766;37.570;2022-10-31T02:36:58;1.13;;;0.38;;
37791;SDS011;29527;55.766;37.570;2022-10-31T02:42:19;1.70;;;0.70;;
37791;SDS011;29527;55.766;37.570;2022-10-31T02:45:02;0.47;;;0.30;;
37791;SDS011;29527;55.766;37.570;2022-10-31T02:47:53;0.75;;;0.30;;
37791;SDS011;29527;55.766;37.570;2022-10-31T02:50:26;2.25;;;0.45;;
37791;SDS011;29527;55.766;37.570;2022-10-31T02:52:55;1.45;;;0.60;;
37791;SDS011;29527;55.766;37.570;2022-10-31T02:57:49;0.90;;;0.50;;
37791;SDS011;29527;55.766;37.570;2022-10-31T03:00:24;2.83;;;0.40;;
37791;SDS011;29527;55.766;37.570;2022-10-31T03:08:06;1.58;;;0.50;;
37791;SDS011;29527;55.766;37.570;2022-10-31T03:10:46;0.88;;;0.50;;
37791;SDS011;29527;55.766;37.570;2022-10-31T03:13:29;0.80;;;0.50;;
37791;SDS011;29527;55.766;37.570;2022-10-31T03:16:15;0.95;;;0.50;;
37791;SDS011;29527;55.766;37.570;2022-10-31T03:19:08;1.13;;;0.50;;
37791;SDS011;29527;55.766;37.570;2022-10-31T03:21:57;2.65;;;0.60;;
37791;SDS011;29527;55.766;37.570;2022-10-31T03:24:25;3.08;;;1.48;;
37791;SDS011;29527;55.766;37.570;2022-10-31T03:26:57;3.65;;;0.77;;
37791;SDS011;29527;55.766;37.570;2022-10-31T03:29:25;1.88;;;1.13;;
37791;SDS011;29527;55.766;37.570;2022-10-31T03:31:54;3.47;;;1.58;;
37791;SDS011;29527;55.766;37.570;2022-10-31T03:34:23;0.93;;;0.63;;
37791;SDS011;29527;55.766;37.570;2022-10-31T03:36:49;3.17;;;0.90;;
37791;SDS011;29527;55.766;37.570;2022-10-31T03:39:19;2.67;;;0.70;;
37791;SDS011;29527;55.766;37.570;2022-10-31T03:41:49;1.75;;;0.65;;
37791;SDS011;29527;55.766;37.570;2022-10-31T03:44:21;1.50;;;0.57;;
37791;SDS011;29527;55.766;37.570;2022-10-31T03:46:49;3.05;;;0.70;;
37791;SDS011;29527;55.766;37.570;2022-10-31T03:49:15;1.77;;;0.70;;
37791;SDS011;29527;55.766;37.570;2022-10-31T03:51:49;1.95;;;0.60;;
37791;SDS011;29527;55.766;37.570;2022-10-31T03:57:06;3.13;;;0.70;;
37791;SDS011;29527;55.766;37.570;2022-10-31T03:59:55;7.40;;;0.95;;
37791;SDS011;29527;55.766;37.570;2022-10-31T04:02:30;1.98;;;0.65;;
37791;SDS011;29527;55.766;37.570;2022-10-31T04:04:57;2.25;;;0.60;;
37791;SDS011;29527;55.766;37.570;2022-10-31T04:07:25;4.90;;;0.90;;
37791;SDS011;29527;55.766;37.570;2022-10-31T04:09:53;3.72;;;0.98;;
37791;SDS011;29527;55.766;37.570;2022-10-31T04:12:20;2.03;;;0.60;;
37791;SDS011;29527;55.766;37.570;2022-10-31T04:14:49;2.63;;;0.95;;
37791;SDS011;29527;55.766;37.570;2022-10-31T04:17:18;1.40;;;0.75;;
37791;SDS011;29527;55.766;37.570;2022-10-31T04:19:47;1.85;;;0.80;;
37791;SDS011;29527;55.766;37.570;2022-10-31T04:22:12;3.78;;;0.70;;
37791;SDS011;29527;55.766;37.570;2022-10-31T04:24:38;1.98;;;0.80;;
37791;SDS011;29527;55.766;37.570;2022-10-31T04:27:05;1.35;;;0.60;;
37791;SDS011;29527;55.766;37.570;2022-10-31T04:29:30;2.60;;;0.70;;
37791;SDS011;29527;55.766;37.570;2022-10-31T04:31:56;1.92;;;0.90;;
37791;SDS011;29527;55.766;37.570;2022-10-31T04:34:21;3.90;;;0.70;;
37791;SDS011;29527;55.766;37.570;2022-10-31T04:36:47;2.97;;;0.73;;
37791;SDS011;29527;55.766;37.570;2022-10-31T04:39:12;2.50;;;0.90;;
37791;SDS011;29527;55.766;37.570;2022-10-31T04:41:37;5.47;;;1.02;;
37791;SDS011;29527;55.766;37.570;2022-10-31T04:44:03;1.90;;;0.60;;
37791;SDS011;29527;55.766;37.570;2022-10-31T04:46:28;1.50;;;0.80;;
37791;SDS011;29527;55.766;37.570;2022-10-31T04:48:54;3.45;;;0.60;;
37791;SDS011;29527;55.766;37.570;2022-10-31T04:51:19;3.08;;;0.82;;
37791;SDS011;29527;55.766;37.570;2022-10-31T04:53:45;0.93;;;0.80;;
37791;SDS011;29527;55.766;37.570;2022-10-31T04:56:10;2.70;;;0.70;;
37791;SDS011;29527;55.766;37.570;2022-10-31T04:58:36;1.70;;;0.73;;
37791;SDS011;29527;55.766;37.570;2022-10-31T05:01:01;2.88;;;1.00;;
37791;SDS011;29527;55.766;37.570;2022-10-31T05:03:26;2.90;;;0.70;;
37791;SDS011;29527;55.766;37.570;2022-10-31T05:05:52;3.10;;;0.98;;
37791;SDS011;29527;55.766;37.570;2022-10-31T05:08:17;2.30;;;1.00;;
37791;SDS011;29527;55.766;37.570;2022-10-31T05:10:43;3.22;;;0.85;;
37791;SDS011;29527;55.766;37.570;2022-10-31T05:13:08;3.03;;;0.65;;
37791;SDS011;29527;55.766;37.570;2022-10-31T05:15:34;3.50;;;0.90;;
37791;SDS011;29527;55.766;37.570;2022-10-31T05:17:59;3.28;;;1.00;;
37791;SDS011;29527;55.766;37.570;2022-10-31T05:20:26;2.13;;;0.85;;
37791;SDS011;29527;55.766;37.570;2022-10-31T05:22:54;2.88;;;0.80;;
37791;SDS011;29527;55.766;37.570;2022-10-31T05:25:21;1.13;;;0.60;;
37791;SDS011;29527;55.766;37.570;2022-10-31T05:27:49;1.67;;;0.50;;
37791;SDS011;29527;55.766;37.570;2022-10-31T05:30:17;2.05;;;0.63;;
37791;SDS011;29527;55.766;37.570;2022-10-31T05:32:46;2.13;;;0.70;;
37791;SDS011;29527;55.766;37.570;2022-10-31T05:35:16;0.80;;;0.43;;
37791;SDS011;29527;55.766;37.570;2022-10-31T05:37:52;5.03;;;0.80;;
37791;SDS011;29527;55.766;37.570;2022-10-31T05:40:18;1.73;;;0.52;;
37791;SDS011;29527;55.766;37.570;2022-10-31T05:42:45;2.70;;;0.80;;
37791;SDS011;29527;55.766;37.570;2022-10-31T05:45:12;2.45;;;0.63;;
37791;SDS011;29527;55.766;37.570;2022-10-31T05:47:40;1.13;;;0.50;;
37791;SDS011;29527;55.766;37.570;2022-10-31T05:50:06;3.42;;;0.50;;
37791;SDS011;29527;55.766;37.570;2022-10-31T05:52:32;1.40;;;0.70;;
37791;SDS011;29527;55.766;37.570;2022-10-31T05:54:58;1.45;;;0.60;;
37791;SDS011;29527;55.766;37.570;2022-10-31T05:57:24;1.85;;;0.60;;
37791;SDS011;29527;55.766;37.570;2022-10-31T05:59:49;2.83;;;0.80;;
37791;SDS011;29527;55.766;37.570;2022-10-31T06:02:20;2.17;;;1.00;;
37791;SDS011;29527;55.766;37.570;2022-10-31T06:04:46;1.13;;;0.68;;
37791;SDS011;29527;55.766;37.570;2022-10-31T06:07:12;2.40;;;0.60;;
37791;SDS011;29527;55.766;37.570;2022-10-31T06:09:37;0.95;;;0.60;;
37791;SDS011;29527;55.766;37.570;2022-10-31T06:12:03;1.77;;;0.80;;
37791;SDS011;29527;55.766;37.570;2022-10-31T06:14:28;2.53;;;0.90;;
37791;SDS011;29527;55.766;37.570;2022-10-31T06:16:54;1.83;;;1.10;;
37791;SDS011;29527;55.766;37.570;2022-10-31T06:19:20;2.42;;;1.13;;
37791;SDS011;29527;55.766;37.570;2022-10-31T06:21:45;3.28;;;1.27;;
37791;SDS011;29527;55.766;37.570;2022-10-31T06:24:11;3.45;;;1.55;;
37791;SDS011;29527;55.766;37.570;2022-10-31T06:26:36;3.25;;;1.83;;
37791;SDS011;29527;55.766;37.570;2022-10-31T06:29:02;5.68;;;1.50;;
37791;SDS011;29527;55.766;37.570;2022-10-31T06:31:27;2.42;;;1.35;;
37791;SDS011;29527;55.766;37.570;2022-10-31T06:33:53;2.75;;;1.50;;
37791;SDS011;29527;55.766;37.570;2022-10-31T06:36:18;2.53;;;1.60;;
37791;SDS011;29527;55.766;37.570;2022-10-31T06:38:43;2.75;;;1.27;;
37791;SDS011;29527;55.766;37.570;2022-10-31T06:41:09;1.73;;;0.75;;
37791;SDS011;29527;55.766;37.570;2022-10-31T06:43:34;2.80;;;1.30;;
37791;SDS011;29527;55.766;37.570;2022-10-31T06:46:03;2.03;;;1.33;;
37791;SDS011;29527;55.766;37.570;2022-10-31T06:48:29;2.90;;;1.30;;
37791;SDS011;29527;55.766;37.570;2022-10-31T06:50:59;2.53;;;1.20;;
37791;SDS011;29527;55.766;37.570;2022-10-31T06:53:25;2.05;;;1.20;;
37791;SDS011;29527;55.766;37.570;2022-10-31T06:55:51;1.70;;;1.40;;
37791;SDS011;29527;55.766;37.570;2022-10-31T06:58:17;1.65;;;1.00;;
37791;SDS011;29527;55.766;37.570;2022-10-31T07:00:42;2.28;;;1.10;;
37791;SDS011;29527;55.766;37.570;2022-10-31T07:03:11;4.32;;;1.00;;
37791;SDS011;29527;55.766;37.570;2022-10-31T07:05:38;3.70;;;1.02;;
37791;SDS011;29527;55.766;37.570;2022-10-31T07:08:05;3.55;;;1.15;;
37791;SDS011;29527;55.766;37.570;2022-10-31T07:10:33;1.88;;;1.20;;
37791;SDS011;29527;55.766;37.570;2022-10-31T07:13:01;3.28;;;1.40;;
37791;SDS011;29527;55.766;37.570;2022-10-31T07:15:29;2.72;;;0.95;;
37791;SDS011;29527;55.766;37.570;2022-10-31T07:18:01;3.65;;;1.15;;
37791;SDS011;29527;55.766;37.570;2022-10-31T07:20:30;4.90;;;1.83;;
37791;SDS011;29527;55.766;37.570;2022-10-31T07:22:56;12.52;;;2.13;;
37791;SDS011;29527;55.766;37.570;2022-10-31T07:25:22;6.25;;;1.48;;
37791;SDS011;29527;55.766;37.570;2022-10-31T07:27:48;3.15;;;1.25;;
37791;SDS011;29527;55.766;37.570;2022-10-31T07:30:14;3.13;;;1.60;;
37791;SDS011;29527;55.766;37.570;2022-10-31T07:35:14;3.40;;;1.50;;
37791;SDS011;29527;55.766;37.570;2022-10-31T07:37:41;4.22;;;1.38;;
37791;SDS011;29527;55.766;37.570;2022-10-31T07:40:07;3.00;;;1.48;;
37791;SDS011;29527;55.766;37.570;2022-10-31T07:42:40;6.55;;;1.45;;
37791;SDS011;29527;55.766;37.570;2022-10-31T07:45:08;4.78;;;1.40;;
37791;SDS011;29527;55.766;37.570;2022-10-31T07:47:39;4.43;;;1.70;;
37791;SDS011;29527;55.766;37.570;2022-10-31T07:50:04;3.72;;;1.80;;
37791;SDS011;29527;55.766;37.570;2022-10-31T07:52:30;2.95;;;1.35;;
37791;SDS011;29527;55.766;37.570;2022-10-31T07:54:56;3.30;;;1.25;;
37791;SDS011;29527;55.766;37.570;2022-10-31T07:57:21;6.15;;;2.00;;
37791;SDS011;29527;55.766;37.570;2022-10-31T07:59:47;4.53;;;1.73;;
37791;SDS011;29527;55.766;37.570;2022-10-31T08:02:12;4.97;;;1.90;;
37791;SDS011;29527;55.766;37.570;2022-10-31T08:04:38;3.20;;;1.35;;
37791;SDS011;29527;55.766;37.570;2022-10-31T08:07:03;1.40;;;1.10;;
37791;SDS011;29527;55.766;37.570;2022-10-31T08:09:28;2.22;;;1.08;;
37791;SDS011;29527;55.766;37.570;2022-10-31T08:11:54;2.10;;;1.15;;
37791;SDS011;29527;55.766;37.570;2022-10-31T08:14:19;4.15;;;1.73;;
37791;SDS011;29527;55.766;37.570;2022-10-31T08:16:45;9.20;;;1.33;;
37791;SDS011;29527;55.766;37.570;2022-10-31T08:19:10;4.13;;;1.35;;
37791;SDS011;29527;55.766;37.570;2022-10-31T08:21:36;1.90;;;1.20;;
37791;SDS011;29527;55.766;37.570;2022-10-31T08:24:01;2.50;;;1.20;;
37791;SDS011;29527;55.766;37.570;2022-10-31T08:26:27;1.55;;;0.90;;
37791;SDS011;29527;55.766;37.570;2022-10-31T08:28:52;3.80;;;1.30;;
37791;SDS011;29527;55.766;37.570;2022-10-31T08:31:19;2.55;;;1.58;;
37791;SDS011;29527;55.766;37.570;2022-10-31T08:33:45;2.13;;;1.30;;
37791;SDS011;29527;55.766;37.570;2022-10-31T08:36:10;2.90;;;1.70;;
37791;SDS011;29527;55.766;37.570;2022-10-31T08:38:36;2.72;;;1.20;;
37791;SDS011;29527;55.766;37.570;2022-10-31T08:41:01;2.22;;;1.45;;
37791;SDS011;29527;55.766;37.570;2022-10-31T08:43:27;2.30;;;1.23;;
37791;SDS011;29527;55.766;37.570;2022-10-31T08:45:52;3.80;;;1.38;;
37791;SDS011;29527;55.766;37.570;2022-10-31T08:48:20;2.13;;;1.02;;
37791;SDS011;29527;55.766;37.570;2022-10-31T08:50:46;2.15;;;1.65;;
37791;SDS011;29527;55.766;37.570;2022-10-31T08:53:13;2.80;;;1.50;;
37791;SDS011;29527;55.766;37.570;2022-10-31T08:55:41;3.45;;;1.45;;
37791;SDS011;29527;55.766;37.570;2022-10-31T08:58:09;4.32;;;1.67;;
37791;SDS011;29527;55.766;37.570;2022-10-31T09:00:36;7.55;;;2.30;;
37791;SDS011;29527;55.766;37.570;2022-10-31T09:03:03;3.20;;;1.70;;
37791;SDS011;29527;55.766;37.570;2022-10-31T09:05:31;3.63;;;1.80;;
37791;SDS011;29527;55.766;37.570;2022-10-31T09:07:58;2.80;;;1.55;;
37791;SDS011;29527;55.766;37.570;2022-10-31T09:10:24;3.22;;;1.80;;
37791;SDS011;29527;55.766;37.570;2022-10-31T09:12:57;3.03;;;1.63;;
37791;SDS011;29527;55.766;37.570;2022-10-31T09:15:25;2.53;;;1.20;;
37791;SDS011;29527;55.766;37.570;2022-10-31T09:17:51;2.63;;;1.38;;
37791;SDS011;29527;55.766;37.570;2022-10-31T09:20:17;3.47;;;1.30;;
37791;SDS011;29527;55.766;37.570;2022-10-31T09:22:43;2.90;;;1.40;;
37791;SDS011;29527;55.766;37.570;2022-10-31T09:25:08;1.70;;;1.33;;
37791;SDS011;29527;55.766;37.570;2022-10-31T09:27:34;2.55;;;1.30;;
37791;SDS011;29527;55.766;37.570;2022-10-31T09:29:59;2.47;;;1.70;;
37791;SDS011;29527;55.766;37.570;2022-10-31T09:32:25;2.83;;;1.42;;
37791;SDS011;29527;55.766;37.570;2022-10-31T09:34:50;2.83;;;1.15;;
37791;SDS011;29527;55.766;37.570;2022-10-31T09:37:15;3.13;;;1.30;;
37791;SDS011;29527;55.766;37.570;2022-10-31T09:39:41;5.18;;;1.20;;
37791;SDS011;29527;55.766;37.570;2022-10-31T09:42:09;2.70;;;1.33;;
37791;SDS011;29527;55.766;37.570;2022-10-31T09:52:32;1.13;;;0.70;;
37791;SDS011;29527;55.766;37.570;2022-10-31T09:57:31;1.52;;;0.98;;
37791;SDS011;29527;55.766;37.570;2022-10-31T09:59:59;2.33;;;1.00;;
37791;SDS011;29527;55.766;37.570;2022-10-31T10:02:29;1.63;;;0.98;;
37791;SDS011;29527;55.766;37.570;2022-10-31T10:05:06;3.25;;;1.40;;
37791;SDS011;29527;55.766;37.570;2022-10-31T10:07:59;6.05;;;1.63;;
37791;SDS011;29527;55.766;37.570;2022-10-31T10:19:43;1.67;;;0.80;;
37791;SDS011;29527;55.766;37.570;2022-10-31T10:22:22;1.40;;;0.70;;
37791;SDS011;29527;55.766;37.570;2022-10-31T10:25:12;1.00;;;0.75;;
37791;SDS011;29527;55.766;37.570;2022-10-31T10:33:09;1.65;;;0.82;;
37791;SDS011;29527;55.766;37.570;2022-10-31T10:38:27;1.02;;;0.60;;
37791;SDS011;29527;55.766;37.570;2022-10-31T10:41:02;0.65;;;0.50;;
37791;SDS011;29527;55.766;37.570;2022-10-31T10:43:38;0.70;;;0.50;;
37791;SDS011;29527;55.766;37.570;2022-10-31T10:48:56;1.60;;;0.70;;
37791;SDS011;29527;55.766;37.570;2022-10-31T10:54:17;1.98;;;1.17;;
37791;SDS011;29527;55.766;37.570;2022-10-31T10:59:20;2.72;;;0.95;;
37791;SDS011;29527;55.766;37.570;2022-10-31T11:01:50;1.80;;;1.02;;
37791;SDS011;29527;55.766;37.570;2022-10-31T11:04:28;2.55;;;1.40;;
37791;SDS011;29527;55.766;37.570;2022-10-31T11:06:57;2.45;;;1.17;;
37791;SDS011;29527;55.766;37.570;2022-10-31T11:09:26;0.82;;;0.63;;
37791;SDS011;29527;55.766;37.570;2022-10-31T11:11:52;1.98;;;1.10;;
37791;SDS011;29527;55.766;37.570;2022-10-31T11:14:19;1.05;;;0.60;;
37791;SDS011;29527;55.766;37.570;2022-10-31T11:16:48;2.33;;;0.50;;
37791;SDS011;29527;55.766;37.570;2022-10-31T11:21:47;1.02;;;0.68;;
37791;SDS011;29527;55.766;37.570;2022-10-31T11:24:14;1.70;;;0.70;;
37791;SDS011;29527;55.766;37.570;2022-10-31T11:26:40;1.60;;;0.88;;
37791;SDS011;29527;55.766;37.570;2022-10-31T11:29:13;1.20;;;0.55;;
37791;SDS011;29527;55.766;37.570;2022-10-31T11:31:45;1.17;;;0.80;;
37791;SDS011;29527;55.766;37.570;2022-10-31T11:37:14;1.50;;;0.70;;
37791;SDS011;29527;55.766;37.570;2022-10-31T11:39:46;4.07;;;0.70;;
37791;SDS011;29527;55.766;37.570;2022-10-31T11:42:19;0.90;;;0.60;;
37791;SDS011;29527;55.766;37.570;2022-10-31T11:44:47;2.78;;;0.80;;
37791;SDS011;29527;55.766;37.570;2022-10-31T11:47:15;0.50;;;0.40;;
37791;SDS011;29527;55.766;37.570;2022-10-31T11:49:43;1.23;;;0.60;;
37791;SDS011;29527;55.766;37.570;2022-10-31T11:52:18;5.57;;;0.73;;
37791;SDS011;29527;55.766;37.570;2022-10-31T11:54:51;0.73;;;0.65;;
37791;SDS011;29527;55.766;37.570;2022-10-31T11:59:59;2.40;;;0.85;;
37791;SDS011;29527;55.766;37.570;2022-10-31T12:02:28;0.43;;;0.43;;
37791;SDS011;29527;55.766;37.570;2022-10-31T12:07:36;1.25;;;0.68;;
37791;SDS011;29527;55.766;37.570;2022-10-31T12:10:04;1.98;;;0.60;;
37791;SDS011;29527;55.766;37.570;2022-10-31T12:23:26;1.98;;;0.60;;
37791;SDS011;29527;55.766;37.570;2022-10-31T12:26:17;1.02;;;0.60;;
37791;SDS011;29527;55.766;37.570;2022-10-31T12:28:54;3.03;;;0.98;;
37791;SDS011;29527;55.766;37.570;2022-10-31T12:43:08;1.38;;;0.80;;
37791;SDS011;29527;55.766;37.570;2022-10-31T12:59:31;1.33;;;0.70;;
37791;SDS011;29527;55.766;37.570;2022-10-31T13:02:09;1.80;;;1.30;;
37791;SDS011;29527;55.766;37.570;2022-10-31T13:04:48;1.27;;;0.90;;
37791;SDS011;29527;55.766;37.570;2022-10-31T13:07:24;0.95;;;0.85;;
37791;SDS011;29527;55.766;37.570;2022-10-31T13:14:58;2.10;;;0.80;;
37791;SDS011;29527;55.766;37.570;2022-10-31T13:17:39;2.13;;;0.90;;
37791;SDS011;29527;55.766;37.570;2022-10-31T13:20:32;1.88;;;0.88;;
37791;SDS011;29527;55.766;37.570;2022-10-31T13:23:05;1.27;;;0.93;;
37791;SDS011;29527;55.766;37.570;2022-10-31T13:25:42;2.30;;;1.13;;
37791;SDS011;29527;55.766;37.570;2022-10-31T13:28:20;2.80;;;1.10;;
37791;SDS011;29527;55.766;37.570;2022-10-31T13:30:55;3.05;;;1.10;;
37791;SDS011;29527;55.766;37.570;2022-10-31T13:33:25;7.20;;;1.00;;
37791;SDS011;29527;55.766;37.570;2022-10-31T13:38:40;2.60;;;1.05;;
37791;SDS011;29527;55.766;37.570;2022-10-31T13:44:00;3.25;;;1.17;;
37791;SDS011;29527;55.766;37.570;2022-10-31T13:48:59;2.28;;;1.20;;
37791;SDS011;29527;55.766;37.570;2022-10-31T13:51:28;1.25;;;0.80;;
37791;SDS011;29527;55.766;37.570;2022-10-31T13:56:48;3.05;;;1.27;;
37791;SDS011;29527;55.766;37.570;2022-10-31T13:59:16;3.35;;;1.23;;
37791;SDS011;29527;55.766;37.570;2022-10-31T14:01:49;4.85;;;1.25;;
37791;SDS011;29527;55.766;37.570;2022-10-31T14:04:20;2.38;;;1.55;;
37791;SDS011;29527;55.766;37.570;2022-10-31T14:09:26;1.40;;;1.20;;
37791;SDS011;29527;55.766;37.570;2022-10-31T14:11:55;4.25;;;1.45;;
37791;SDS011;29527;55.766;37.570;2022-10-31T14:14:27;1.58;;;1.25;;
37791;SDS011;29527;55.766;37.570;2022-10-31T14:16:58;5.28;;;1.48;;
37791;SDS011;29527;55.766;37.570;2022-10-31T14:19:24;2.88;;;1.40;;
37791;SDS011;29527;55.766;37.570;2022-10-31T14:21:50;3.40;;;1.10;;
37791;SDS011;29527;55.766;37.570;2022-10-31T14:26:52;2.45;;;1.20;;
37791;SDS011;29527;55.766;37.570;2022-10-31T14:29:23;4.28;;;1.40;;
37791;SDS011;29527;55.766;37.570;2022-10-31T14:32:01;2.90;;;1.50;;
37791;SDS011;29527;55.766;37.570;2022-10-31T14:34:38;2.22;;;1.50;;
37791;SDS011;29527;55.766;37.570;2022-10-31T14:48:26;2.25;;;1.20;;
37791;SDS011;29527;55.766;37.570;2022-10-31T14:50:56;2.33;;;1.60;;
37791;SDS011;29527;55.766;37.570;2022-10-31T14:55:53;1.90;;;1.45;;
37791;SDS011;29527;55.766;37.570;2022-10-31T14:58:21;1.73;;;1.42;;
37791;SDS011;29527;55.766;37.570;2022-10-31T15:00:54;2.78;;;1.80;;
37791;SDS011;29527;55.766;37.570;2022-10-31T15:05:54;3.47;;;1.60;;
37791;SDS011;29527;55.766;37.570;2022-10-31T15:11:21;5.03;;;1.90;;
37791;SDS011;29527;55.766;37.570;2022-10-31T15:13:52;3.75;;;1.63;;
37791;SDS011;29527;55.766;37.570;2022-10-31T15:16:23;3.20;;;1.40;;
37791;SDS011;29527;55.766;37.570;2022-10-31T15:18:53;2.50;;;1.55;;
37791;SDS011;29527;55.766;37.570;2022-10-31T15:21:25;2.50;;;1.50;;
37791;SDS011;29527;55.766;37.570;2022-10-31T15:23:59;2.88;;;1.58;;
37791;SDS011;29527;55.766;37.570;2022-10-31T15:26:31;4.00;;;2.00;;
37791;SDS011;29527;55.766;37.570;2022-10-31T15:31:30;2.45;;;1.50;;
37791;SDS011;29527;55.766;37.570;2022-10-31T15:34:00;2.70;;;1.73;;
37791;SDS011;29527;55.766;37.570;2022-10-31T15:36:29;3.20;;;1.17;;
37791;SDS011;29527;55.766;37.570;2022-10-31T15:38:55;2.90;;;1.30;;
37791;SDS011;29527;55.766;37.570;2022-10-31T15:44:05;5.72;;;1.60;;
37791;SDS011;29527;55.766;37.570;2022-10-31T15:46:39;1.90;;;1.33;;
37791;SDS011;29527;55.766;37.570;2022-10-31T15:49:10;2.45;;;1.25;;
37791;SDS011;29527;55.766;37.570;2022-10-31T15:51:46;1.75;;;1.30;;
37791;SDS011;29527;55.766;37.570;2022-10-31T15:54:12;1.75;;;1.38;;
37791;SDS011;29527;55.766;37.570;2022-10-31T15:56:39;2.10;;;1.50;;
37791;SDS011;29527;55.766;37.570;2022-10-31T15:59:11;2.33;;;1.50;;
37791;SDS011;29527;55.766;37.570;2022-10-31T16:01:55;4.00;;;1.63;;
37791;SDS011;29527;55.766;37.570;2022-10-31T16:04:25;2.67;;;1.52;;
37791;SDS011;29527;55.766;37.570;2022-10-31T16:06:58;1.55;;;1.27;;
37791;SDS011;29527;55.766;37.570;2022-10-31T16:09:25;1.57;;;0.83;;
37791;SDS011;29527;55.766;37.570;2022-10-31T16:11:51;1.98;;;0.93;;
37791;SDS011;29527;55.766;37.570;2022-10-31T16:14:17;2.47;;;0.80;;
37791;SDS011;29527;55.766;37.570;2022-10-31T16:16:48;2.00;;;1.10;;
37791;SDS011;29527;55.766;37.570;2022-10-31T16:21:43;1.98;;;1.00;;
37791;SDS011;29527;55.766;37.570;2022-10-31T16:24:43;2.33;;;1.13;;
37791;SDS011;29527;55.766;37.570;2022-10-31T16:27:20;2.05;;;0.98;;
37791;SDS011;29527;55.766;37.570;2022-10-31T16:29:53;3.10;;;1.13;;
37791;SDS011;29527;55.766;37.570;2022-10-31T16:32:34;3.50;;;1.30;;
37791;SDS011;29527;55.766;37.570;2022-10-31T16:35:16;2.25;;;0.93;;
37791;SDS011;29527;55.766;37.570;2022-10-31T16:37:50;1.10;;;0.80;;
37791;SDS011;29527;55.766;37.570;2022-10-31T16:40:16;1.85;;;1.00;;
37791;SDS011;29527;55.766;37.570;2022-10-31T16:42:43;1.88;;;1.10;;
37791;SDS011;29527;55.766;37.570;2022-10-31T16:45:28;2.72;;;1.10;;
37791;SDS011;29527;55.766;37.570;2022-10-31T16:48:03;1.40;;;0.70;;
37791;SDS011;29527;55.766;37.570;2022-10-31T16:50:36;1.95;;;1.10;;
37791;SDS011;29527;55.766;37.570;2022-10-31T16:53:02;2.58;;;1.25;;
37791;SDS011;29527;55.766;37.570;2022-10-31T16:55:28;2.47;;;0.90;;
37791;SDS011;29527;55.766;37.570;2022-10-31T16:57:55;1.55;;;0.80;;
37791;SDS011;29527;55.766;37.570;2022-10-31T17:00:22;3.40;;;0.95;;
37791;SDS011;29527;55.766;37.570;2022-10-31T17:02:50;3.42;;;1.15;;
37791;SDS011;29527;55.766;37.570;2022-10-31T17:05:17;1.75;;;1.10;;
37791;SDS011;29527;55.766;37.570;2022-10-31T17:07:44;2.15;;;1.10;;
37791;SDS011;29527;55.766;37.570;2022-10-31T17:10:10;1.52;;;1.10;;
37791;SDS011;29527;55.766;37.570;2022-10-31T17:12:37;0.90;;;0.82;;
37791;SDS011;29527;55.766;37.570;2022-10-31T17:15:06;1.70;;;0.80;;
37791;SDS011;29527;55.766;37.570;2022-10-31T17:17:35;2.08;;;1.02;;
37791;SDS011;29527;55.766;37.570;2022-10-31T17:20:00;1.80;;;0.80;;
37791;SDS011;29527;55.766;37.570;2022-10-31T17:22:26;1.95;;;0.70;;
37791;SDS011;29527;55.766;37.570;2022-10-31T17:24:51;2.60;;;0.90;;
37791;SDS011;29527;55.766;37.570;2022-10-31T17:27:17;3.35;;;1.10;;
37791;SDS011;29527;55.766;37.570;2022-10-31T17:29:43;1.80;;;1.00;;
37791;SDS011;29527;55.766;37.570;2022-10-31T17:32:08;2.80;;;1.10;;
37791;SDS011;29527;55.766;37.570;2022-10-31T17:34:33;3.60;;;1.17;;